createdAt,value
2022-09-23T00:02:46.816Z,973.42
2022-09-23T00:08:18.386Z,973.53
2022-09-23T00:13:50.147Z,973.33
2022-09-23T00:19:21.814Z,973.49
2022-09-23T00:24:53.564Z,973.36
2022-09-23T00:30:25.434Z,973.1
2022-09-23T00:35:57.005Z,972.63
2022-09-23T00:41:33.190Z,972.73
2022-09-23T00:47:04.841Z,972.43
2022-09-23T00:52:36.509Z,972.45
2022-09-23T00:58:08.282Z,972.22
2022-09-23T01:03:40.033Z,972.17
2022-09-23T01:09:11.760Z,972.01
2022-09-23T01:14:43.465Z,972.4
2022-09-23T01:20:15.272Z,972.44
2022-09-23T01:25:46.938Z,972.53
2022-09-23T01:31:18.756Z,972.54
2022-09-23T01:36:50.417Z,972.5
2022-09-23T01:42:26.630Z,972.74
2022-09-23T01:47:58.379Z,972.77
2022-09-23T01:53:29.882Z,972.72
2022-09-23T01:59:01.606Z,972.54
2022-09-23T02:04:33.351Z,972.56
2022-09-23T02:10:05.018Z,972.45
2022-09-23T02:15:36.789Z,972.48
2022-09-23T02:21:08.435Z,972.56
2022-09-23T02:26:40.170Z,972.57
2022-09-23T02:32:11.983Z,972.59
2022-09-23T02:37:43.671Z,972.72
2022-09-23T02:43:19.763Z,972.65
2022-09-23T02:48:51.431Z,972.58
2022-09-23T02:54:23.206Z,972.62
2022-09-23T02:59:54.936Z,972.57
2022-09-23T03:05:26.654Z,972.74
2022-09-23T03:10:58.405Z,972.96
2022-09-23T03:16:30.233Z,973.12
2022-09-23T03:22:01.893Z,973.31
2022-09-23T03:27:33.592Z,973.29
2022-09-23T03:33:05.263Z,973.48
2022-09-23T03:38:36.904Z,973.25
2022-09-23T03:44:13.203Z,973.21
2022-09-23T03:49:44.872Z,973.1
2022-09-23T03:55:16.728Z,973.0
2022-09-23T04:00:48.494Z,973.07
2022-09-23T04:06:20.125Z,972.49
2022-09-23T04:11:51.799Z,972.4
2022-09-23T04:17:23.616Z,972.8
2022-09-23T04:22:55.295Z,972.81
2022-09-23T04:28:26.849Z,973.17
2022-09-23T04:33:58.701Z,972.32
2022-09-23T04:39:30.409Z,973.33
2022-09-23T04:45:06.559Z,973.49
2022-09-23T04:50:38.298Z,973.58
2022-09-23T04:56:09.984Z,973.37
2022-09-23T05:01:42.155Z,973.07
2022-09-23T05:07:13.473Z,973.57
2022-09-23T05:12:45.176Z,973.33
2022-09-23T05:18:21.420Z,973.4
2022-09-23T05:23:48.766Z,973.57
2022-09-23T05:29:20.482Z,973.85
2022-09-23T05:34:52.221Z,974.25
2022-09-23T05:40:24.200Z,974.11
2022-09-23T05:46:00.201Z,973.96
2022-09-23T05:51:32.433Z,973.84
2022-09-23T05:57:05.902Z,974.24
2022-09-23T06:02:35.498Z,974.69
2022-09-23T06:08:07.201Z,974.53
2022-09-23T06:13:38.935Z,974.78
2022-09-23T06:19:10.513Z,975.06
2022-09-23T06:24:42.289Z,974.87
2022-09-23T06:30:14.031Z,975.67
2022-09-23T06:36:00.195Z,976.06
2022-09-23T06:41:17.514Z,976.15
2022-09-23T06:46:55.741Z,976.54
2022-09-23T06:52:27.243Z,976.57
2022-09-23T06:57:59.060Z,977.35
2022-09-23T07:03:30.780Z,977.78
2022-09-23T07:09:02.467Z,978.46
2022-09-23T07:14:34.197Z,978.76
2022-09-23T07:20:05.956Z,979.01
2022-09-23T07:25:37.629Z,979.15
2022-09-23T07:31:09.426Z,977.52
2022-09-23T07:36:41.598Z,979.1
2022-09-23T07:42:12.801Z,979.14
2022-09-23T07:47:50.962Z,979.67
2022-09-23T07:53:22.662Z,978.88
2022-09-23T07:58:54.428Z,979.47
2022-09-23T08:04:26.130Z,979.8
2022-09-23T08:09:57.765Z,979.67
2022-09-23T08:15:29.860Z,979.77
2022-09-23T08:21:01.305Z,979.84
2022-09-23T08:26:32.905Z,978.93
2022-09-23T08:32:04.716Z,979.75
2022-09-23T08:37:36.512Z,979.98
2022-09-23T08:43:08.172Z,980.22
2022-09-23T08:48:44.287Z,979.61
2022-09-23T08:54:16.013Z,980.82
2022-09-23T08:59:47.762Z,980.82
2022-09-23T09:05:19.609Z,980.77
2022-09-23T09:10:51.329Z,980.09
2022-09-23T09:17:00.506Z,981.28
2022-09-23T09:21:54.533Z,981.21
2022-09-23T09:27:26.368Z,980.77
2022-09-23T09:32:58.089Z,980.99
2022-09-23T09:38:29.797Z,980.44
2022-09-23T09:44:01.602Z,981.09
2022-09-23T09:49:41.301Z,981.16
2022-09-23T09:55:09.278Z,981.63
2022-09-23T10:00:41.061Z,980.9
2022-09-23T10:06:13.123Z,981.26
2022-09-23T10:11:44.422Z,980.96
2022-09-23T10:17:16.089Z,980.62
2022-09-23T10:22:47.873Z,980.85
2022-09-23T10:28:19.613Z,980.79
2022-09-23T10:33:51.229Z,981.21
2022-09-23T10:39:23.159Z,981.26
2022-09-23T10:44:54.766Z,981.05
2022-09-23T10:50:30.886Z,980.64
2022-09-23T10:56:02.583Z,979.92
2022-09-23T11:01:34.459Z,980.22
2022-09-23T11:07:06.141Z,980.48
2022-09-23T11:12:37.806Z,981.1
2022-09-23T11:18:09.483Z,981.27
2022-09-23T11:23:41.423Z,980.51
2022-09-23T11:29:13.090Z,980.85
2022-09-23T11:34:44.764Z,980.43
2022-09-23T11:40:16.983Z,980.72
2022-09-23T11:45:48.510Z,980.89
2022-09-23T11:51:26.321Z,980.15
2022-09-23T11:56:57.987Z,979.99
2022-09-23T12:02:32.069Z,980.12
2022-09-23T12:08:01.541Z,979.54
2022-09-23T12:13:33.277Z,979.67
2022-09-23T12:19:05.145Z,980.43
2022-09-23T12:24:36.588Z,979.77
2022-09-23T12:30:08.563Z,979.41
2022-09-23T12:35:40.216Z,978.55
2022-09-23T12:41:11.840Z,978.6
2022-09-23T12:46:43.587Z,978.6
2022-09-23T12:52:19.835Z,978.63
2022-09-23T12:57:51.394Z,977.98
2022-09-23T13:03:23.393Z,978.43
2022-09-23T13:08:54.999Z,977.77
2022-09-23T13:14:28.423Z,978.0
2022-09-23T13:19:58.402Z,978.76
2022-09-23T13:25:30.146Z,978.63
2022-09-23T13:31:02.102Z,977.55
2022-09-23T13:36:33.662Z,977.63
2022-09-23T13:42:05.351Z,977.13
2022-09-23T13:47:37.026Z,977.12
2022-09-23T13:53:13.156Z,977.51
2022-09-23T13:58:44.852Z,977.77
2022-09-23T14:04:16.698Z,977.74
2022-09-23T14:09:48.370Z,978.11
2022-09-23T14:15:20.119Z,977.63
2022-09-23T14:20:51.796Z,977.75
2022-09-23T14:26:23.568Z,977.97
2022-09-23T14:31:55.487Z,977.08
2022-09-23T14:37:26.992Z,976.9
2022-09-23T14:42:58.730Z,976.86
2022-09-23T14:48:30.481Z,975.71
2022-09-23T14:54:08.562Z,976.05
2022-09-23T14:59:40.347Z,975.66
2022-09-23T15:05:12.132Z,974.82
2022-09-23T15:10:43.852Z,975.47
2022-09-23T15:16:15.772Z,976.09
2022-09-23T15:17:05.090Z,975.64
2022-09-23T15:22:36.873Z,975.22
2022-09-23T15:28:09.015Z,976.19
2022-09-23T15:33:40.391Z,975.57
2022-09-23T15:39:11.921Z,975.66
2022-09-23T15:44:43.654Z,975.71
2022-09-23T15:50:15.470Z,976.08
2022-09-23T15:55:47.374Z,976.05
2022-09-23T16:01:18.974Z,976.09
2022-09-23T16:06:50.599Z,976.06
2022-09-23T16:12:22.564Z,975.8
2022-09-23T16:18:00.526Z,975.64
2022-09-23T16:23:32.176Z,975.62
2022-09-23T16:29:04.188Z,975.43
2022-09-23T16:34:35.641Z,975.31
2022-09-23T16:40:07.585Z,975.29
2022-09-23T16:45:39.524Z,975.08
2022-09-23T16:51:10.830Z,974.85
2022-09-23T16:56:42.609Z,974.77
2022-09-23T17:02:14.538Z,974.7
2022-09-23T17:07:46.013Z,974.77
2022-09-23T17:13:17.737Z,974.79
2022-09-23T17:18:55.830Z,974.72
2022-09-23T17:24:27.625Z,974.58
2022-09-23T17:29:59.584Z,974.39
2022-09-23T17:35:31.117Z,974.35
2022-09-23T17:41:02.814Z,974.15
2022-09-23T17:46:34.656Z,974.06
2022-09-23T17:52:06.307Z,974.09
2022-09-23T17:57:38.055Z,974.07
2022-09-23T18:03:09.750Z,973.94
2022-09-23T18:08:41.533Z,973.87
2022-09-23T18:14:13.241Z,973.89
2022-09-23T18:19:49.323Z,973.96
2022-09-23T18:25:40.386Z,974.16
2022-09-23T18:30:52.887Z,974.04
2022-09-23T18:36:24.490Z,973.97
2022-09-23T18:41:56.247Z,974.07
2022-09-23T18:47:27.915Z,974.14
2022-09-23T18:52:59.735Z,974.18
2022-09-23T18:58:31.367Z,974.17
2022-09-23T19:04:03.048Z,974.15
2022-09-23T19:09:34.851Z,974.12
2022-09-23T19:15:06.539Z,974.19
2022-09-23T19:20:44.719Z,974.16
2022-09-23T19:26:16.449Z,974.17
2022-09-23T19:31:48.394Z,974.22
2022-09-23T19:37:19.907Z,974.15
2022-09-23T19:42:51.591Z,974.13
2022-09-23T19:48:23.335Z,974.11
2022-09-23T19:53:55.018Z,974.12
2022-09-23T19:59:26.970Z,974.04
2022-09-23T20:04:58.466Z,973.99
2022-09-23T20:10:30.163Z,974.01
2022-09-23T20:16:02.430Z,974.02
2022-09-23T20:21:38.150Z,973.98
2022-09-23T20:27:09.806Z,973.98
2022-09-23T20:32:45.369Z,974.03
2022-09-23T20:38:13.186Z,974.01
2022-09-23T20:43:44.971Z,974.0
2022-09-23T20:49:16.973Z,974.13
2022-09-23T20:54:48.370Z,973.93
2022-09-23T21:00:20.133Z,974.04
2022-09-23T21:05:51.930Z,974.0
2022-09-23T21:11:23.670Z,974.14
2022-09-23T21:16:55.487Z,974.08
2022-09-23T21:22:31.501Z,974.11
2022-09-23T21:28:03.270Z,973.98
2022-09-23T21:33:34.954Z,974.09
2022-09-23T21:39:06.807Z,974.23
2022-09-23T21:44:38.473Z,974.41
2022-09-23T21:50:10.362Z,974.4
2022-09-23T21:55:42.031Z,974.35
2022-09-23T22:01:13.940Z,974.43
2022-09-23T22:06:45.650Z,974.39
2022-09-23T22:12:17.192Z,974.38
2022-09-23T22:17:49.092Z,974.26
2022-09-23T22:23:25.010Z,974.41
2022-09-23T22:28:56.749Z,974.4
2022-09-23T22:34:52.233Z,974.36
2022-09-23T22:40:00.311Z,974.43
2022-09-23T22:45:31.977Z,974.3
2022-09-23T22:51:03.661Z,974.5
2022-09-23T22:56:35.405Z,974.54
2022-09-23T23:02:07.426Z,974.62
2022-09-23T23:07:38.834Z,974.66
2022-09-23T23:13:10.545Z,974.74
2022-09-23T23:18:42.211Z,974.75
2022-09-23T23:24:18.360Z,974.65
2022-09-23T23:29:50.143Z,974.68
2022-09-23T23:35:21.854Z,974.58
2022-09-23T23:40:53.739Z,974.43
2022-09-23T23:46:25.568Z,974.61
2022-09-23T23:51:57.009Z,974.69
2022-09-23T23:57:28.727Z,974.8
